Sugar Land Regional Airport
KSGR : now visible

Airfield :











YOU CAN JOIN US ON...

 
LOGIN :

Register | Disclaimer

   EN    FR    IT 

 









Legend :    VFR   Marginal VFR   IFR   Intensive IFR   Very Intensive IFR
Visi :
Ceiling :
>= 8 km
>= 3000ft
5 to 8 km
1000 to 3000 ft
1500m to 5 km
500 to 1000 ft
800 to 1500m
200 to 500 ft
< 800m
< 200 ft
Symbols :   Thunderstorms  Fog  Heavy snow  Heavy precipitations  Wind > 20 kt






- Airport Elevation : 82 ft


KSGR - Sugar Land Regional

CURRENT METAR :
  • 271453Z 22005KT 8SM OVC023 31/27 A2989 RMK AO2 SLP123 T03060272 51016 $

EXPIRED METARs :
  • 271407Z 22004KT 6SM BR SCT011 OVC023 29/27 A2989 RMK AO2 T02890272 $
  • 271353Z 22003KT 6SM BR BKN010 OVC017 28/27 A2988 RMK AO2 SLP120 T02830272 $
  • 271338Z 29003KT 6SM BR FEW005 OVC010 28/27 A2988 RMK AO2 T02830272 $
  • 271253Z 00000KT 5SM BR OVC005 28/27 A2987 RMK AO2 SLP115 T02780272 $
  • 271153Z 00000KT 5SM BR OVC005 28/27 A2985 RMK AO2 SLP107 T02780272 10278 20256 53020 $
  • 271053Z 00000KT 6SM BR OVC005 27/27 A2982 RMK AO2 SLP098 T02720267 $

TAF KSGR
Valid from the 27 at 12:00 until the 28 at 12:00 UTC


271120Z 2712/2812 18004KT 6SM BR OVC005
FM271500 17006KT P6SM SCT015 BKN025
FM271900 15009KT P6SM BKN035
FM280900 11003KT 4SM BR BKN025
KZHU FIR / North America



MET'MAP, your aeronautical weather chart ! - Copyright ORBIFLY December 2007 - Disclaimer

ORBIFLY MET'MAP TEAM :

Programming & Development : Alexandra Zaïnal
Original concept : Baudouin d'Aumeries
Technical & hardware support : Manuel Goepfert
Assistance : Marc-Olivier Méhu




SOURCES & CREDITS :

   NOAA       Earth
Advisory